TimeCDT,TemperatureF,Dew PointF,Humidity,Sea Level PressureIn,VisibilityMPH,Wind Direction,Wind SpeedMPH,Gust SpeedMPH,PrecipitationIn,Events,Conditions,WindDirDegrees,DateUTC
12:15 AM,57.2,53.6,88,30.08,10.0,Calm,Calm,-,N/A,,Clear,0,2012-10-15 05:15:00
12:35 AM,55.4,53.6,94,30.08,10.0,Calm,Calm,-,N/A,,Clear,0,2012-10-15 05:35:00
12:55 AM,55.4,53.6,94,30.08,10.0,Calm,Calm,-,N/A,,Clear,0,2012-10-15 05:55:00
1:15 AM,55.4,53.6,94,30.08,10.0,Calm,Calm,-,N/A,,Clear,0,2012-10-15 06:15:00
1:35 AM,55.4,51.8,88,30.08,10.0,Calm,Calm,-,N/A,,Clear,0,2012-10-15 06:35:00
1:55 AM,55.4,51.8,88,30.08,10.0,Calm,Calm,-,N/A,,Clear,0,2012-10-15 06:55:00
2:15 AM,55.4,51.8,88,30.08,10.0,NW,3.5,-,N/A,,Clear,310,2012-10-15 07:15:00
2:35 AM,55.4,51.8,88,30.07,10.0,Calm,Calm,-,N/A,,Clear,0,2012-10-15 07:35:00
2:55 AM,57.2,50.0,77,30.07,10.0,NNW,4.6,-,N/A,,Clear,330,2012-10-15 07:55:00
3:15 AM,55.4,50.0,82,30.07,10.0,Calm,Calm,-,N/A,,Clear,0,2012-10-15 08:15:00
3:35 AM,55.4,50.0,82,30.06,10.0,NNW,3.5,-,N/A,,Clear,330,2012-10-15 08:35:00
3:55 AM,53.6,50.0,88,30.06,10.0,Calm,Calm,-,N/A,,Clear,0,2012-10-15 08:55:00
4:15 AM,53.6,50.0,88,30.06,10.0,Calm,Calm,-,N/A,,Clear,0,2012-10-15 09:15:00
4:35 AM,53.6,50.0,88,30.07,10.0,Calm,Calm,-,N/A,,Clear,0,2012-10-15 09:35:00
4:55 AM,51.8,50.0,94,30.07,10.0,Calm,Calm,-,N/A,,Clear,0,2012-10-15 09:55:00
5:15 AM,51.8,50.0,94,30.08,10.0,Calm,Calm,-,N/A,,Clear,0,2012-10-15 10:15:00
5:35 AM,51.8,48.2,88,30.08,10.0,Calm,Calm,-,N/A,,Clear,0,2012-10-15 10:35:00
5:55 AM,50.0,48.2,94,30.08,10.0,Calm,Calm,-,N/A,,Clear,0,2012-10-15 10:55:00
6:15 AM,50.0,48.2,94,30.08,10.0,Calm,Calm,-,N/A,,Clear,0,2012-10-15 11:15:00
6:35 AM,50.0,48.2,94,30.08,10.0,Calm,Calm,-,N/A,,Clear,0,2012-10-15 11:35:00
7:35 AM,50.0,48.2,94,30.08,10.0,Calm,Calm,-,N/A,,Clear,0,2012-10-15 12:35:00
7:55 AM,50.0,48.2,94,30.09,10.0,Calm,Calm,-,N/A,,Clear,0,2012-10-15 12:55:00
8:35 AM,55.4,51.8,88,30.10,10.0,Calm,Calm,-,N/A,,Clear,0,2012-10-15 13:35:00
8:55 AM,59.0,51.8,77,30.10,10.0,Calm,Calm,-,N/A,,Clear,0,2012-10-15 13:55:00
9:15 AM,60.8,51.8,72,30.10,10.0,Calm,Calm,-,N/A,,Clear,0,2012-10-15 14:15:00
9:55 AM,66.2,51.8,60,30.11,10.0,Calm,Calm,-,N/A,,Clear,0,2012-10-15 14:55:00
10:15 AM,68.0,50.0,52,30.11,10.0,Calm,Calm,-,N/A,,Clear,0,2012-10-15 15:15:00
10:35 AM,69.8,51.8,53,30.10,10.0,Calm,Calm,-,N/A,,Clear,0,2012-10-15 15:35:00
10:55 AM,71.6,50.0,46,30.11,10.0,Calm,Calm,-,N/A,,Clear,0,2012-10-15 15:55:00
11:35 AM,75.2,46.4,36,30.10,10.0,Calm,Calm,-,N/A,,Clear,0,2012-10-15 16:35:00
11:55 AM,77.0,44.6,32,30.10,10.0,SW,3.5,-,N/A,,Clear,220,2012-10-15 16:55:00
12:15 PM,77.0,44.6,32,30.09,10.0,SW,4.6,-,N/A,,Clear,220,2012-10-15 17:15:00
12:35 PM,78.8,42.8,28,30.08,10.0,SSW,4.6,-,N/A,,Clear,200,2012-10-15 17:35:00
1:15 PM,80.6,39.2,23,30.06,10.0,Calm,Calm,-,N/A,,Clear,0,2012-10-15 18:15:00
1:35 PM,78.8,39.2,24,30.05,10.0,Calm,Calm,-,N/A,,Clear,0,2012-10-15 18:35:00
1:55 PM,80.6,39.2,23,30.04,10.0,Calm,Calm,-,N/A,,Clear,0,2012-10-15 18:55:00
2:15 PM,80.6,35.6,20,30.03,10.0,Calm,Calm,-,N/A,,Clear,0,2012-10-15 19:15:00
2:35 PM,80.6,37.4,21,30.01,10.0,North,3.5,-,N/A,,Clear,10,2012-10-15 19:35:00
2:55 PM,80.6,37.4,21,30.00,10.0,ESE,3.5,-,N/A,,Clear,120,2012-10-15 19:55:00
3:15 PM,80.6,37.4,21,30.00,10.0,South,3.5,-,N/A,,Clear,190,2012-10-15 20:15:00
3:35 PM,82.4,39.2,21,29.99,10.0,SSE,6.9,-,N/A,,Clear,150,2012-10-15 20:35:00
3:55 PM,82.4,37.4,20,29.98,10.0,Calm,Calm,-,N/A,,Clear,0,2012-10-15 20:55:00
4:15 PM,82.4,37.4,20,29.98,10.0,South,3.5,-,N/A,,Clear,190,2012-10-15 21:15:00
4:35 PM,80.6,37.4,21,29.98,10.0,South,3.5,-,N/A,,Clear,180,2012-10-15 21:35:00
4:55 PM,80.6,39.2,23,29.98,10.0,SSW,3.5,-,N/A,,Clear,200,2012-10-15 21:55:00
5:15 PM,80.6,39.2,23,29.98,10.0,SW,5.8,-,N/A,,Clear,220,2012-10-15 22:15:00
5:35 PM,78.8,39.2,24,29.98,10.0,SSW,4.6,-,N/A,,Clear,210,2012-10-15 22:35:00
6:15 PM,77.0,41.0,28,29.98,10.0,South,3.5,-,N/A,,Clear,180,2012-10-15 23:15:00
6:35 PM,73.4,41.0,31,29.98,10.0,South,4.6,-,N/A,,Clear,170,2012-10-15 23:35:00
6:55 PM,71.6,41.0,33,29.98,10.0,South,3.5,-,N/A,,Clear,180,2012-10-15 23:55:00
7:15 PM,71.6,42.8,35,29.98,10.0,Calm,Calm,-,N/A,,Clear,0,2012-10-16 00:15:00
7:35 PM,69.8,42.8,38,29.98,10.0,Calm,Calm,-,N/A,,Clear,0,2012-10-16 00:35:00
7:55 PM,69.8,44.6,40,29.99,10.0,South,3.5,-,N/A,,Clear,180,2012-10-16 00:55:00
8:15 PM,68.0,46.4,46,29.99,10.0,Calm,Calm,-,N/A,,Clear,0,2012-10-16 01:15:00
8:35 PM,66.2,46.4,49,30.00,10.0,Calm,Calm,-,N/A,,Clear,0,2012-10-16 01:35:00
8:55 PM,64.4,46.4,52,30.00,10.0,SSE,3.5,-,N/A,,Clear,160,2012-10-16 01:55:00
9:15 PM,64.4,46.4,52,30.01,10.0,South,3.5,-,N/A,,Clear,170,2012-10-16 02:15:00
9:35 PM,64.4,46.4,52,30.01,10.0,SSE,3.5,-,N/A,,Clear,160,2012-10-16 02:35:00
9:55 PM,62.6,46.4,55,30.01,10.0,SSE,3.5,-,N/A,,Clear,160,2012-10-16 02:55:00
10:15 PM,62.6,46.4,55,30.01,10.0,Calm,Calm,-,N/A,,Clear,0,2012-10-16 03:15:00
10:35 PM,62.6,46.4,55,30.02,10.0,South,3.5,-,N/A,,Clear,170,2012-10-16 03:35:00
10:55 PM,62.6,46.4,55,30.01,10.0,Calm,Calm,-,N/A,,Clear,0,2012-10-16 03:55:00
11:15 PM,60.8,46.4,59,30.01,10.0,SSE,3.5,-,N/A,,Clear,160,2012-10-16 04:15:00
11:35 PM,60.8,48.2,63,30.01,10.0,SSE,3.5,-,N/A,,Clear,160,2012-10-16 04:35:00
11:55 PM,60.8,46.4,59,30.00,10.0,SSE,3.5,-,N/A,,Clear,160,2012-10-16 04:55:00